sensor_id;sensor_type;location;lat;lon;timestamp;pressure;altitude;pressure_sealevel;temperature;humidity
13581;BME280;6861;46.170;7.222;2023-01-19T00:01:54;94896.81;;;2.16;51.88
13581;BME280;6861;46.170;7.222;2023-01-19T00:04:45;94904.16;;;2.24;51.19
13581;BME280;6861;46.170;7.222;2023-01-19T00:07:38;94908.19;;;2.37;51.46
13581;BME280;6861;46.170;7.222;2023-01-19T00:10:31;94909.59;;;2.45;50.66
13581;BME280;6861;46.170;7.222;2023-01-19T00:13:48;94905.13;;;2.40;50.91
13581;BME280;6861;46.170;7.222;2023-01-19T00:17:04;94911.19;;;2.29;50.84
13581;BME280;6861;46.170;7.222;2023-01-19T00:19:44;94910.09;;;2.25;50.83
13581;BME280;6861;46.170;7.222;2023-01-19T00:22:41;94917.91;;;2.30;51.58
13581;BME280;6861;46.170;7.222;2023-01-19T00:25:23;94912.19;;;2.28;51.78
13581;BME280;6861;46.170;7.222;2023-01-19T00:27:53;94917.47;;;2.16;51.21
13581;BME280;6861;46.170;7.222;2023-01-19T00:30:22;94928.41;;;2.07;51.43
13581;BME280;6861;46.170;7.222;2023-01-19T00:32:50;94926.22;;;2.15;50.92
13581;BME280;6861;46.170;7.222;2023-01-19T00:35:18;94924.50;;;2.21;51.33
13581;BME280;6861;46.170;7.222;2023-01-19T00:37:46;94930.75;;;2.25;51.30
13581;BME280;6861;46.170;7.222;2023-01-19T00:40:15;94930.88;;;2.35;50.98
13581;BME280;6861;46.170;7.222;2023-01-19T00:42:43;94918.09;;;2.45;51.07
13581;BME280;6861;46.170;7.222;2023-01-19T00:45:17;94924.28;;;2.44;50.80
13581;BME280;6861;46.170;7.222;2023-01-19T00:47:46;94926.16;;;2.49;51.22
13581;BME280;6861;46.170;7.222;2023-01-19T01:37:58;94980.53;;;2.42;50.78
13581;BME280;6861;46.170;7.222;2023-01-19T01:40:26;94975.78;;;2.34;50.79
13581;BME280;6861;46.170;7.222;2023-01-19T01:42:55;94980.31;;;2.27;50.26
13581;BME280;6861;46.170;7.222;2023-01-19T01:45:29;94979.22;;;2.23;49.99
13581;BME280;6861;46.170;7.222;2023-01-19T01:48:02;94981.81;;;2.23;50.28
13581;BME280;6861;46.170;7.222;2023-01-19T01:50:33;94986.44;;;2.21;50.88
13581;BME280;6861;46.170;7.222;2023-01-19T01:53:08;94983.31;;;2.19;51.20
13581;BME280;6861;46.170;7.222;2023-01-19T01:55:41;94986.91;;;2.18;51.19
13581;BME280;6861;46.170;7.222;2023-01-19T01:58:12;94979.16;;;2.18;50.51
13581;BME280;6861;46.170;7.222;2023-01-19T02:00:42;94977.59;;;2.17;50.93
13581;BME280;6861;46.170;7.222;2023-01-19T02:03:28;94980.72;;;2.02;50.88
13581;BME280;6861;46.170;7.222;2023-01-19T02:05:59;94979.56;;;1.93;50.28
13581;BME280;6861;46.170;7.222;2023-01-19T02:08:38;94993.16;;;1.88;51.37
13581;BME280;6861;46.170;7.222;2023-01-19T02:11:27;95007.53;;;1.84;51.11
13581;BME280;6861;46.170;7.222;2023-01-19T02:14:13;95000.94;;;1.77;51.92
13581;BME280;6861;46.170;7.222;2023-01-19T02:16:41;95002.19;;;1.74;51.41
13581;BME280;6861;46.170;7.222;2023-01-19T02:19:14;95012.59;;;1.79;51.62
13581;BME280;6861;46.170;7.222;2023-01-19T02:21:50;95013.59;;;1.78;51.30
13581;BME280;6861;46.170;7.222;2023-01-19T02:24:21;94998.91;;;1.79;51.28
13581;BME280;6861;46.170;7.222;2023-01-19T02:26:50;95010.00;;;1.79;51.72
13581;BME280;6861;46.170;7.222;2023-01-19T02:29:20;95005.31;;;1.76;50.67
13581;BME280;6861;46.170;7.222;2023-01-19T02:31:49;95009.09;;;1.69;51.17
13581;BME280;6861;46.170;7.222;2023-01-19T02:34:18;95011.91;;;1.67;51.44
13581;BME280;6861;46.170;7.222;2023-01-19T02:36:49;95006.75;;;1.67;50.67
13581;BME280;6861;46.170;7.222;2023-01-19T02:39:24;95011.34;;;1.65;51.01
13581;BME280;6861;46.170;7.222;2023-01-19T02:41:58;95012.03;;;1.60;51.72
13581;BME280;6861;46.170;7.222;2023-01-19T02:44:28;95020.94;;;1.53;51.44
13581;BME280;6861;46.170;7.222;2023-01-19T02:46:58;95016.78;;;1.52;51.90
13581;BME280;6861;46.170;7.222;2023-01-19T02:49:27;95013.44;;;1.51;51.67
13581;BME280;6861;46.170;7.222;2023-01-19T02:51:55;95019.69;;;1.55;51.75
13581;BME280;6861;46.170;7.222;2023-01-19T02:54:35;95025.16;;;1.59;51.09
13581;BME280;6861;46.170;7.222;2023-01-19T02:57:34;95019.78;;;1.60;51.71
13581;BME280;6861;46.170;7.222;2023-01-19T03:00:19;95020.34;;;1.62;51.85
13581;BME280;6861;46.170;7.222;2023-01-19T03:02:58;95020.56;;;1.61;51.61
13581;BME280;6861;46.170;7.222;2023-01-19T03:05:43;95022.50;;;1.54;51.10
13581;BME280;6861;46.170;7.222;2023-01-19T03:08:21;95013.81;;;1.43;51.22
13581;BME280;6861;46.170;7.222;2023-01-19T03:11:00;95019.97;;;1.42;50.83
13581;BME280;6861;46.170;7.222;2023-01-19T03:13:33;95021.31;;;1.45;51.86
13581;BME280;6861;46.170;7.222;2023-01-19T03:16:09;95024.88;;;1.44;51.49
13581;BME280;6861;46.170;7.222;2023-01-19T03:18:43;95032.06;;;1.42;51.38
13581;BME280;6861;46.170;7.222;2023-01-19T03:21:14;95042.28;;;1.37;51.58
13581;BME280;6861;46.170;7.222;2023-01-19T03:23:46;95042.09;;;1.26;51.63
13581;BME280;6861;46.170;7.222;2023-01-19T03:26:22;95049.72;;;1.21;51.39
13581;BME280;6861;46.170;7.222;2023-01-19T03:28:53;95044.91;;;1.13;52.04
13581;BME280;6861;46.170;7.222;2023-01-19T03:31:24;95040.44;;;1.09;51.50
13581;BME280;6861;46.170;7.222;2023-01-19T03:33:56;95044.81;;;1.08;52.02
13581;BME280;6861;46.170;7.222;2023-01-19T03:36:29;95041.56;;;1.13;51.59
13581;BME280;6861;46.170;7.222;2023-01-19T03:38:59;95047.50;;;1.13;51.25
13581;BME280;6861;46.170;7.222;2023-01-19T03:41:31;95052.66;;;1.13;52.13
13581;BME280;6861;46.170;7.222;2023-01-19T03:44:02;95047.59;;;1.18;50.90
13581;BME280;6861;46.170;7.222;2023-01-19T03:46:32;95051.75;;;1.19;50.88
13581;BME280;6861;46.170;7.222;2023-01-19T03:49:00;95050.81;;;1.25;51.81
13581;BME280;6861;46.170;7.222;2023-01-19T03:51:28;95058.66;;;1.30;51.77
13581;BME280;6861;46.170;7.222;2023-01-19T03:53:57;95058.09;;;1.28;51.36
13581;BME280;6861;46.170;7.222;2023-01-19T03:56:28;95056.09;;;1.30;51.29
13581;BME280;6861;46.170;7.222;2023-01-19T03:58:56;95056.78;;;1.26;50.81
13581;BME280;6861;46.170;7.222;2023-01-19T04:01:24;95063.63;;;1.20;51.28
13581;BME280;6861;46.170;7.222;2023-01-19T04:03:53;95063.75;;;1.14;51.97
13581;BME280;6861;46.170;7.222;2023-01-19T04:06:21;95059.03;;;1.11;51.68
13581;BME280;6861;46.170;7.222;2023-01-19T04:08:50;95071.69;;;1.12;50.89
13581;BME280;6861;46.170;7.222;2023-01-19T04:11:19;95069.00;;;1.07;51.35
13581;BME280;6861;46.170;7.222;2023-01-19T04:13:49;95058.50;;;0.97;51.37
13581;BME280;6861;46.170;7.222;2023-01-19T04:16:17;95071.38;;;0.97;51.65
13581;BME280;6861;46.170;7.222;2023-01-19T04:18:47;95075.97;;;0.95;51.01
13581;BME280;6861;46.170;7.222;2023-01-19T04:21:15;95077.44;;;0.91;51.49
13581;BME280;6861;46.170;7.222;2023-01-19T04:23:43;95076.88;;;0.89;51.72
13581;BME280;6861;46.170;7.222;2023-01-19T04:26:12;95077.44;;;0.91;51.79
13581;BME280;6861;46.170;7.222;2023-01-19T04:28:40;95078.56;;;0.95;51.43
13581;BME280;6861;46.170;7.222;2023-01-19T04:31:09;95080.69;;;0.98;51.52
13581;BME280;6861;46.170;7.222;2023-01-19T04:33:38;95086.84;;;0.97;51.77
13581;BME280;6861;46.170;7.222;2023-01-19T04:36:07;95084.81;;;0.99;51.70
13581;BME280;6861;46.170;7.222;2023-01-19T04:38:35;95084.59;;;1.01;50.80
13581;BME280;6861;46.170;7.222;2023-01-19T04:41:04;95094.09;;;1.00;51.03
13581;BME280;6861;46.170;7.222;2023-01-19T04:43:32;95089.84;;;0.94;51.37
13581;BME280;6861;46.170;7.222;2023-01-19T04:46:00;95097.47;;;0.89;51.08
13581;BME280;6861;46.170;7.222;2023-01-19T04:48:30;95095.16;;;0.76;51.50
13581;BME280;6861;46.170;7.222;2023-01-19T04:50:58;95088.34;;;0.70;51.29
13581;BME280;6861;46.170;7.222;2023-01-19T04:53:26;95102.22;;;0.69;51.45
13581;BME280;6861;46.170;7.222;2023-01-19T04:55:54;95091.91;;;0.69;51.90
13581;BME280;6861;46.170;7.222;2023-01-19T04:58:22;95095.03;;;0.71;51.87
13581;BME280;6861;46.170;7.222;2023-01-19T05:00:50;95100.41;;;0.69;51.32
13581;BME280;6861;46.170;7.222;2023-01-19T05:03:18;95108.94;;;0.70;51.11
13581;BME280;6861;46.170;7.222;2023-01-19T05:05:48;95102.22;;;0.69;51.42
13581;BME280;6861;46.170;7.222;2023-01-19T05:08:16;95115.31;;;0.67;51.73
13581;BME280;6861;46.170;7.222;2023-01-19T05:10:44;95114.84;;;0.70;51.40
13581;BME280;6861;46.170;7.222;2023-01-19T05:13:12;95125.03;;;0.77;51.95
13581;BME280;6861;46.170;7.222;2023-01-19T05:15:40;95117.22;;;0.72;51.77
13581;BME280;6861;46.170;7.222;2023-01-19T05:18:09;95125.25;;;0.63;52.03
13581;BME280;6861;46.170;7.222;2023-01-19T05:20:37;95133.31;;;0.55;52.04
13581;BME280;6861;46.170;7.222;2023-01-19T05:23:07;95136.31;;;0.52;51.80
13581;BME280;6861;46.170;7.222;2023-01-19T05:25:35;95133.84;;;0.46;51.49
13581;BME280;6861;46.170;7.222;2023-01-19T05:28:03;95132.38;;;0.38;51.79
13581;BME280;6861;46.170;7.222;2023-01-19T05:30:31;95133.50;;;0.42;52.12
13581;BME280;6861;46.170;7.222;2023-01-19T05:32:59;95129.94;;;0.43;52.00
13581;BME280;6861;46.170;7.222;2023-01-19T05:35:28;95135.31;;;0.42;52.20
13581;BME280;6861;46.170;7.222;2023-01-19T05:38:02;95132.72;;;0.42;51.92
13581;BME280;6861;46.170;7.222;2023-01-19T05:40:31;95134.63;;;0.46;51.60
13581;BME280;6861;46.170;7.222;2023-01-19T05:43:00;95135.66;;;0.45;51.90
13581;BME280;6861;46.170;7.222;2023-01-19T05:45:31;95142.13;;;0.48;51.89
13581;BME280;6861;46.170;7.222;2023-01-19T05:47:59;95146.50;;;0.47;52.17
13581;BME280;6861;46.170;7.222;2023-01-19T05:50:27;95142.47;;;0.51;52.26
13581;BME280;6861;46.170;7.222;2023-01-19T05:52:55;95155.91;;;0.53;52.33
13581;BME280;6861;46.170;7.222;2023-01-19T05:55:25;95158.25;;;0.55;52.07
13581;BME280;6861;46.170;7.222;2023-01-19T05:57:54;95160.16;;;0.59;51.31
13581;BME280;6861;46.170;7.222;2023-01-19T06:00:23;95171.38;;;0.65;51.35
13581;BME280;6861;46.170;7.222;2023-01-19T06:02:51;95169.13;;;0.69;51.95
13581;BME280;6861;46.170;7.222;2023-01-19T06:05:19;95170.72;;;0.70;51.53
13581;BME280;6861;46.170;7.222;2023-01-19T06:07:47;95169.13;;;0.69;51.92
13581;BME280;6861;46.170;7.222;2023-01-19T06:10:15;95174.72;;;0.65;51.47
13581;BME280;6861;46.170;7.222;2023-01-19T06:12:44;95181.88;;;0.63;51.25
13581;BME280;6861;46.170;7.222;2023-01-19T06:15:13;95182.69;;;0.64;51.29
13581;BME280;6861;46.170;7.222;2023-01-19T06:17:41;95182.56;;;0.59;51.08
13581;BME280;6861;46.170;7.222;2023-01-19T06:20:10;95185.34;;;0.57;51.93
13581;BME280;6861;46.170;7.222;2023-01-19T06:22:39;95190.13;;;0.42;51.48
13581;BME280;6861;46.170;7.222;2023-01-19T06:25:08;95185.50;;;0.32;51.81
13581;BME280;6861;46.170;7.222;2023-01-19T06:27:37;95195.44;;;0.29;51.65
13581;BME280;6861;46.170;7.222;2023-01-19T06:30:07;95197.91;;;0.24;51.39
13581;BME280;6861;46.170;7.222;2023-01-19T06:32:37;95205.78;;;0.11;51.62
13581;BME280;6861;46.170;7.222;2023-01-19T06:35:05;95206.88;;;0.03;51.68
13581;BME280;6861;46.170;7.222;2023-01-19T06:37:34;95217.84;;;-0.02;51.95
13581;BME280;6861;46.170;7.222;2023-01-19T06:40:02;95229.56;;;-0.06;52.19
13581;BME280;6861;46.170;7.222;2023-01-19T06:42:31;95218.78;;;-0.14;52.02
13581;BME280;6861;46.170;7.222;2023-01-19T06:44:59;95226.13;;;-0.18;52.13
13581;BME280;6861;46.170;7.222;2023-01-19T06:47:27;95219.56;;;-0.32;52.13
13581;BME280;6861;46.170;7.222;2023-01-19T06:49:56;95221.78;;;-0.54;52.62
13581;BME280;6861;46.170;7.222;2023-01-19T06:52:24;95229.88;;;-0.75;52.90
13581;BME280;6861;46.170;7.222;2023-01-19T06:54:52;95227.88;;;-0.91;53.29
13581;BME280;6861;46.170;7.222;2023-01-19T06:57:22;95231.91;;;-1.02;52.74
13581;BME280;6861;46.170;7.222;2023-01-19T06:59:51;95236.09;;;-1.08;53.01
13581;BME280;6861;46.170;7.222;2023-01-19T07:02:19;95245.25;;;-1.18;53.14
13581;BME280;6861;46.170;7.222;2023-01-19T07:04:54;95253.06;;;-1.32;53.67
13581;BME280;6861;46.170;7.222;2023-01-19T07:07:23;95260.28;;;-1.53;54.06
13581;BME280;6861;46.170;7.222;2023-01-19T07:09:52;95267.38;;;-1.80;54.35
13581;BME280;6861;46.170;7.222;2023-01-19T07:12:20;95266.66;;;-2.01;54.95
13581;BME280;6861;46.170;7.222;2023-01-19T07:14:48;95258.41;;;-2.09;54.85
13581;BME280;6861;46.170;7.222;2023-01-19T07:17:16;95263.50;;;-2.03;55.32
13581;BME280;6861;46.170;7.222;2023-01-19T07:19:45;95263.69;;;-1.98;54.63
13581;BME280;6861;46.170;7.222;2023-01-19T07:22:13;95266.06;;;-2.03;54.67
13581;BME280;6861;46.170;7.222;2023-01-19T07:24:43;95267.88;;;-2.10;55.36
13581;BME280;6861;46.170;7.222;2023-01-19T07:27:11;95273.78;;;-2.09;55.54
13581;BME280;6861;46.170;7.222;2023-01-19T07:29:39;95273.78;;;-2.09;55.12
13581;BME280;6861;46.170;7.222;2023-01-19T07:32:07;95271.03;;;-2.08;55.25
13581;BME280;6861;46.170;7.222;2023-01-19T07:34:35;95280.06;;;-1.99;54.78
13581;BME280;6861;46.170;7.222;2023-01-19T07:37:03;95274.31;;;-1.87;54.46
13581;BME280;6861;46.170;7.222;2023-01-19T07:39:31;95280.38;;;-1.75;54.73
13581;BME280;6861;46.170;7.222;2023-01-19T07:42:03;95283.41;;;-1.60;54.15
13581;BME280;6861;46.170;7.222;2023-01-19T07:44:32;95280.94;;;-1.42;54.25
13581;BME280;6861;46.170;7.222;2023-01-19T07:47:00;95282.44;;;-1.27;53.86
13581;BME280;6861;46.170;7.222;2023-01-19T07:49:28;95275.66;;;-1.15;53.67
13581;BME280;6861;46.170;7.222;2023-01-19T07:51:56;95281.69;;;-1.03;53.39
13581;BME280;6861;46.170;7.222;2023-01-19T07:54:24;95286.00;;;-0.97;53.63
13581;BME280;6861;46.170;7.222;2023-01-19T07:56:52;95286.88;;;-1.10;53.48
13581;BME280;6861;46.170;7.222;2023-01-19T07:59:22;95287.56;;;-1.27;53.74
13581;BME280;6861;46.170;7.222;2023-01-19T08:01:50;95284.50;;;-1.43;54.01
13581;BME280;6861;46.170;7.222;2023-01-19T08:04:19;95298.00;;;-1.60;54.54
13581;BME280;6861;46.170;7.222;2023-01-19T08:06:48;95306.56;;;-1.73;54.55
13581;BME280;6861;46.170;7.222;2023-01-19T08:09:16;95298.13;;;-1.80;55.21
13581;BME280;6861;46.170;7.222;2023-01-19T08:11:44;95308.38;;;-1.80;54.79
13581;BME280;6861;46.170;7.222;2023-01-19T08:14:13;95298.53;;;-1.83;55.21
13581;BME280;6861;46.170;7.222;2023-01-19T08:16:42;95301.88;;;-1.76;54.89
13581;BME280;6861;46.170;7.222;2023-01-19T08:19:10;95305.38;;;-1.71;54.69
13581;BME280;6861;46.170;7.222;2023-01-19T08:21:38;95302.34;;;-1.61;54.66
13581;BME280;6861;46.170;7.222;2023-01-19T08:24:16;95308.41;;;-1.49;54.98
13581;BME280;6861;46.170;7.222;2023-01-19T08:26:45;95306.84;;;-1.50;54.71
13581;BME280;6861;46.170;7.222;2023-01-19T08:29:13;95318.16;;;-1.64;54.69
13581;BME280;6861;46.170;7.222;2023-01-19T08:31:43;95325.25;;;-1.66;55.00
13581;BME280;6861;46.170;7.222;2023-01-19T08:34:11;95326.84;;;-1.65;54.73
13581;BME280;6861;46.170;7.222;2023-01-19T08:36:39;95329.97;;;-1.56;54.89
13581;BME280;6861;46.170;7.222;2023-01-19T08:39:08;95323.97;;;-1.44;54.60
13581;BME280;6861;46.170;7.222;2023-01-19T08:41:37;95323.53;;;-1.34;54.37
13581;BME280;6861;46.170;7.222;2023-01-19T08:44:05;95331.63;;;-1.30;54.36
13581;BME280;6861;46.170;7.222;2023-01-19T08:46:33;95324.31;;;-1.34;54.35
13581;BME280;6861;46.170;7.222;2023-01-19T08:49:03;95325.91;;;-1.33;54.60
13581;BME280;6861;46.170;7.222;2023-01-19T08:51:31;95322.00;;;-1.42;54.44
13581;BME280;6861;46.170;7.222;2023-01-19T08:53:59;95322.47;;;-1.58;54.63
13581;BME280;6861;46.170;7.222;2023-01-19T08:56:27;95325.69;;;-1.69;55.31
13581;BME280;6861;46.170;7.222;2023-01-19T08:58:55;95328.50;;;-1.77;55.23
13581;BME280;6861;46.170;7.222;2023-01-19T09:01:34;95332.84;;;-1.78;55.20
13581;BME280;6861;46.170;7.222;2023-01-19T09:04:05;95324.94;;;-1.76;55.26
13581;BME280;6861;46.170;7.222;2023-01-19T09:06:33;95330.81;;;-1.69;55.10
13581;BME280;6861;46.170;7.222;2023-01-19T09:09:02;95333.50;;;-1.57;55.07
13581;BME280;6861;46.170;7.222;2023-01-19T09:11:30;95332.66;;;-1.45;54.83
13581;BME280;6861;46.170;7.222;2023-01-19T09:13:58;95335.75;;;-1.29;54.77
13581;BME280;6861;46.170;7.222;2023-01-19T09:16:26;95338.81;;;-1.14;54.23
13581;BME280;6861;46.170;7.222;2023-01-19T09:18:54;95343.88;;;-1.01;54.04
13581;BME280;6861;46.170;7.222;2023-01-19T09:21:24;95343.78;;;-0.88;54.08
13581;BME280;6861;46.170;7.222;2023-01-19T09:23:52;95335.50;;;-0.90;53.82
13581;BME280;6861;46.170;7.222;2023-01-19T09:26:21;95340.84;;;-0.91;53.96
13581;BME280;6861;46.170;7.222;2023-01-19T09:28:49;95348.47;;;-0.85;54.20
13581;BME280;6861;46.170;7.222;2023-01-19T09:31:17;95345.66;;;-0.77;54.13
13581;BME280;6861;46.170;7.222;2023-01-19T09:33:45;95346.97;;;-0.68;53.78
13581;BME280;6861;46.170;7.222;2023-01-19T09:36:13;95339.16;;;-0.54;53.58
13581;BME280;6861;46.170;7.222;2023-01-19T09:38:43;95334.91;;;-0.42;53.08
13581;BME280;6861;46.170;7.222;2023-01-19T09:41:17;95341.94;;;-0.31;53.31
13581;BME280;6861;46.170;7.222;2023-01-19T09:43:51;95340.50;;;-0.27;53.25
13581;BME280;6861;46.170;7.222;2023-01-19T09:46:25;95340.50;;;-0.27;53.00
13581;BME280;6861;46.170;7.222;2023-01-19T09:48:57;95333.06;;;-0.35;52.99
13581;BME280;6861;46.170;7.222;2023-01-19T09:51:28;95336.34;;;-0.46;53.16
13581;BME280;6861;46.170;7.222;2023-01-19T09:54:08;95331.88;;;-0.57;53.26
13581;BME280;6861;46.170;7.222;2023-01-19T09:56:39;95330.72;;;-0.61;53.69
13581;BME280;6861;46.170;7.222;2023-01-19T09:59:20;95349.28;;;-0.59;53.52
13581;BME280;6861;46.170;7.222;2023-01-19T10:02:00;95338.59;;;-0.56;53.52
13581;BME280;6861;46.170;7.222;2023-01-19T10:04:35;95338.75;;;-0.51;53.30
13581;BME280;6861;46.170;7.222;2023-01-19T10:07:12;95330.03;;;-0.50;53.30
13581;BME280;6861;46.170;7.222;2023-01-19T10:09:59;95333.44;;;-0.56;53.32
13581;BME280;6861;46.170;7.222;2023-01-19T10:12:38;95330.19;;;-0.70;53.52
13581;BME280;6861;46.170;7.222;2023-01-19T10:15:16;95325.69;;;-0.75;53.74
13581;BME280;6861;46.170;7.222;2023-01-19T10:17:53;95332.97;;;-0.72;53.65
13581;BME280;6861;46.170;7.222;2023-01-19T10:20:31;95327.00;;;-0.66;53.87
13581;BME280;6861;46.170;7.222;2023-01-19T10:23:04;95327.09;;;-0.54;53.52
13581;BME280;6861;46.170;7.222;2023-01-19T10:25:44;95329.56;;;-0.41;53.55
13581;BME280;6861;46.170;7.222;2023-01-19T10:28:15;95320.75;;;-0.26;53.24
13581;BME280;6861;46.170;7.222;2023-01-19T10:30:48;95321.41;;;-0.13;52.46
13581;BME280;6861;46.170;7.222;2023-01-19T10:33:17;95311.84;;;-0.06;52.48
13581;BME280;6861;46.170;7.222;2023-01-19T10:35:45;95314.63;;;-0.07;52.32
13581;BME280;6861;46.170;7.222;2023-01-19T10:38:15;95317.41;;;-0.09;52.32
13581;BME280;6861;46.170;7.222;2023-01-19T10:40:54;95316.81;;;-0.11;52.35
13581;BME280;6861;46.170;7.222;2023-01-19T10:43:40;95312.25;;;-0.09;52.75
13581;BME280;6861;46.170;7.222;2023-01-19T10:46:18;95309.84;;;-0.04;52.72
13581;BME280;6861;46.170;7.222;2023-01-19T10:48:49;95307.13;;;-0.09;52.50
13581;BME280;6861;46.170;7.222;2023-01-19T10:51:19;95309.13;;;-0.11;52.66
13581;BME280;6861;46.170;7.222;2023-01-19T10:54:01;95306.69;;;-0.06;52.69
13581;BME280;6861;46.170;7.222;2023-01-19T10:56:34;95303.47;;;-0.01;52.71
13581;BME280;6861;46.170;7.222;2023-01-19T10:59:04;95300.22;;;0.04;52.50
13581;BME280;6861;46.170;7.222;2023-01-19T11:01:33;95304.50;;;0.10;52.22
13581;BME280;6861;46.170;7.222;2023-01-19T11:04:19;95299.38;;;0.10;52.04
13581;BME280;6861;46.170;7.222;2023-01-19T11:06:48;95297.38;;;0.12;51.94
13581;BME280;6861;46.170;7.222;2023-01-19T11:09:17;95301.66;;;0.18;51.91
13581;BME280;6861;46.170;7.222;2023-01-19T11:11:49;95302.78;;;0.22;51.50
13581;BME280;6861;46.170;7.222;2023-01-19T11:14:20;95290.63;;;0.29;51.59
13581;BME280;6861;46.170;7.222;2023-01-19T11:16:51;95287.03;;;0.48;52.25
13581;BME280;6861;46.170;7.222;2023-01-19T11:19:24;95286.69;;;0.75;51.22
13581;BME280;6861;46.170;7.222;2023-01-19T11:22:10;95274.66;;;1.10;51.72
13581;BME280;6861;46.170;7.222;2023-01-19T11:24:43;95273.56;;;1.53;51.15
13581;BME280;6861;46.170;7.222;2023-01-19T11:27:15;95276.41;;;1.91;51.09
13581;BME280;6861;46.170;7.222;2023-01-19T11:29:47;95266.91;;;2.32;50.82
13581;BME280;6861;46.170;7.222;2023-01-19T11:32:20;95263.91;;;2.69;50.52
13581;BME280;6861;46.170;7.222;2023-01-19T11:34:49;95264.53;;;3.04;49.56
13581;BME280;6861;46.170;7.222;2023-01-19T11:37:29;95263.75;;;3.37;49.06
13581;BME280;6861;46.170;7.222;2023-01-19T11:39:58;95261.31;;;3.69;49.10
13581;BME280;6861;46.170;7.222;2023-01-19T11:42:32;95263.63;;;3.87;48.36
13581;BME280;6861;46.170;7.222;2023-01-19T11:45:06;95261.41;;;3.96;48.59
13581;BME280;6861;46.170;7.222;2023-01-19T11:47:42;95264.13;;;4.06;48.15
13581;BME280;6861;46.170;7.222;2023-01-19T11:50:20;95255.09;;;4.09;48.29
13581;BME280;6861;46.170;7.222;2023-01-19T11:52:54;95258.25;;;4.11;47.87
13581;BME280;6861;46.170;7.222;2023-01-19T11:55:30;95256.19;;;4.13;48.15
13581;BME280;6861;46.170;7.222;2023-01-19T11:58:01;95258.72;;;4.08;47.96
13581;BME280;6861;46.170;7.222;2023-01-19T12:00:33;95256.91;;;3.86;47.75
13581;BME280;6861;46.170;7.222;2023-01-19T12:03:08;95245.31;;;3.72;47.72
13581;BME280;6861;46.170;7.222;2023-01-19T12:05:41;95252.94;;;3.62;47.85
13581;BME280;6861;46.170;7.222;2023-01-19T12:08:17;95249.66;;;3.50;48.12
13581;BME280;6861;46.170;7.222;2023-01-19T12:10:48;95236.09;;;3.38;48.00
13581;BME280;6861;46.170;7.222;2023-01-19T12:13:22;95231.53;;;3.28;47.92
13581;BME280;6861;46.170;7.222;2023-01-19T12:15:53;95226.53;;;3.21;47.88
13581;BME280;6861;46.170;7.222;2023-01-19T12:18:25;95233.13;;;3.12;47.55
13581;BME280;6861;46.170;7.222;2023-01-19T12:20:55;95226.84;;;3.08;47.38
13581;BME280;6861;46.170;7.222;2023-01-19T12:23:35;95220.28;;;3.01;47.04
13581;BME280;6861;46.170;7.222;2023-01-19T12:26:24;95215.34;;;2.99;47.30
13581;BME280;6861;46.170;7.222;2023-01-19T12:28:57;95210.63;;;2.96;47.35
13581;BME280;6861;46.170;7.222;2023-01-19T12:31:27;95207.75;;;2.92;47.01
13581;BME280;6861;46.170;7.222;2023-01-19T12:34:28;95206.25;;;2.96;46.81
13581;BME280;6861;46.170;7.222;2023-01-19T12:37:00;95204.53;;;3.02;46.63
13581;BME280;6861;46.170;7.222;2023-01-19T12:39:31;95196.06;;;3.07;46.94
13581;BME280;6861;46.170;7.222;2023-01-19T12:42:12;95190.28;;;3.16;46.54
13581;BME280;6861;46.170;7.222;2023-01-19T12:44:43;95194.03;;;3.25;46.29
13581;BME280;6861;46.170;7.222;2023-01-19T12:47:19;95186.41;;;3.36;46.29
13581;BME280;6861;46.170;7.222;2023-01-19T12:49:52;95188.53;;;3.39;46.18
13581;BME280;6861;46.170;7.222;2023-01-19T12:52:25;95182.88;;;3.42;46.32
13581;BME280;6861;46.170;7.222;2023-01-19T12:54:59;95185.03;;;3.50;46.84
13581;BME280;6861;46.170;7.222;2023-01-19T12:57:31;95182.97;;;3.52;46.51
13581;BME280;6861;46.170;7.222;2023-01-19T13:00:06;95179.69;;;3.56;46.06
13581;BME280;6861;46.170;7.222;2023-01-19T13:02:44;95182.03;;;3.58;46.11
13581;BME280;6861;46.170;7.222;2023-01-19T13:05:15;95182.09;;;3.63;46.06
13581;BME280;6861;46.170;7.222;2023-01-19T13:08:12;95180.59;;;3.67;45.86
13581;BME280;6861;46.170;7.222;2023-01-19T13:17:05;95183.34;;;3.60;46.51
13581;BME280;6861;46.170;7.222;2023-01-19T13:19:51;95181.53;;;3.61;46.59
13581;BME280;6861;46.170;7.222;2023-01-19T13:22:48;95187.75;;;3.60;46.77
13581;BME280;6861;46.170;7.222;2023-01-19T13:25:29;95181.47;;;3.56;46.87
13581;BME280;6861;46.170;7.222;2023-01-19T13:27:59;95177.31;;;3.55;46.95
13581;BME280;6861;46.170;7.222;2023-01-19T13:30:28;95170.13;;;3.57;46.21
13581;BME280;6861;46.170;7.222;2023-01-19T13:33:04;95176.91;;;3.63;46.06
13581;BME280;6861;46.170;7.222;2023-01-19T13:35:33;95182.63;;;3.65;46.18
13581;BME280;6861;46.170;7.222;2023-01-19T13:38:02;95174.38;;;3.68;46.13
13581;BME280;6861;46.170;7.222;2023-01-19T13:40:36;95177.94;;;3.62;46.16
13581;BME280;6861;46.170;7.222;2023-01-19T13:43:13;95169.03;;;3.53;46.36
13581;BME280;6861;46.170;7.222;2023-01-19T13:45:46;95169.75;;;3.48;46.28
13581;BME280;6861;46.170;7.222;2023-01-19T13:48:21;95165.41;;;3.54;45.95
13581;BME280;6861;46.170;7.222;2023-01-19T13:50:58;95166.50;;;3.58;46.12
13581;BME280;6861;46.170;7.222;2023-01-19T13:53:29;95172.75;;;3.62;46.29
13581;BME280;6861;46.170;7.222;2023-01-19T13:56:17;95167.59;;;3.62;46.41
13581;BME280;6861;46.170;7.222;2023-01-19T13:59:02;95168.84;;;3.59;46.09
13581;BME280;6861;46.170;7.222;2023-01-19T14:01:37;95169.50;;;3.50;46.35
13581;BME280;6861;46.170;7.222;2023-01-19T14:04:23;95172.28;;;3.43;46.06
13581;BME280;6861;46.170;7.222;2023-01-19T14:06:52;95167.84;;;3.39;46.11
13581;BME280;6861;46.170;7.222;2023-01-19T14:09:23;95168.78;;;3.33;46.38
13581;BME280;6861;46.170;7.222;2023-01-19T14:12:06;95169.75;;;3.26;46.49
13581;BME280;6861;46.170;7.222;2023-01-19T14:14:35;95167.16;;;3.26;46.29
13581;BME280;6861;46.170;7.222;2023-01-19T14:17:03;95161.56;;;3.35;46.11
13581;BME280;6861;46.170;7.222;2023-01-19T14:19:48;95160.31;;;3.37;46.66
13581;BME280;6861;46.170;7.222;2023-01-19T14:22:16;95165.59;;;3.47;46.86
13581;BME280;6861;46.170;7.222;2023-01-19T14:24:45;95167.22;;;3.53;46.56
13581;BME280;6861;46.170;7.222;2023-01-19T14:27:21;95159.47;;;3.53;46.54
13581;BME280;6861;46.170;7.222;2023-01-19T14:29:50;95162.91;;;3.59;46.64
13581;BME280;6861;46.170;7.222;2023-01-19T14:32:22;95160.59;;;3.62;46.33
13581;BME280;6861;46.170;7.222;2023-01-19T14:35:11;95160.44;;;3.69;46.36
13581;BME280;6861;46.170;7.222;2023-01-19T14:37:45;95168.31;;;3.79;46.61
13581;BME280;6861;46.170;7.222;2023-01-19T14:40:18;95159.34;;;3.87;45.96